Time;durP1;ratioP1;P1;durP2;ratioP2;P2;SDS_P1;SDS_P2;PMS_P1;PMS_P2;Temp;Humidity;BMP_temperature;BMP_pressure;BME280_temperature;BME280_humidity;BME280_pressure;Samples;Min_cycle;Max_cycle;Signal;HPM_P1;HPM_P2
2023/01/29 00:02:20;;;;;;;;;;;;;;;20.04;43.21;102198.03;5049824;28;3005;-65
2023/01/29 00:04:47;;;;;;;;;;;;;;;20.03;43.17;102196.50;5051185;28;3064;-65
2023/01/29 00:07:13;;;;;;;;;;;;;;;20.04;43.39;102200.91;5055007;28;3333;-65
2023/01/29 00:09:40;;;;;;;;;;;;;;;20.01;43.33;102205.00;5053340;28;3092;-65
2023/01/29 00:12:09;;;;;;;;;;;;;;;20.01;43.43;102199.25;5053285;28;2993;-65
2023/01/29 00:14:35;;;;;;;;;;;;;;;20.01;43.26;102205.00;5055621;28;3000;-66
2023/01/29 00:17:01;;;;;;;;;;;;;;;20.02;43.25;102206.53;5056103;28;2975;-65
2023/01/29 00:19:28;;;;;;;;;;;;;;;20.04;43.26;102208.75;5053627;28;2977;-66
2023/01/29 00:21:55;;;;;;;;;;;;;;;20.04;43.17;102200.91;5055356;28;3198;-65
2023/01/29 00:24:21;;;;;;;;;;;;;;;20.05;43.17;102198.78;5057649;28;3082;-65
2023/01/29 00:26:49;;;;;;;;;;;;;;;20.05;43.29;102196.66;5054824;28;2950;-65
2023/01/29 00:29:16;;;;;;;;;;;;;;;20.05;43.25;102187.28;5054216;28;2945;-65
2023/01/29 00:31:43;;;;;;;;;;;;;;;20.04;43.36;102180.78;5052444;28;2957;-65
2023/01/29 00:34:09;;;;;;;;;;;;;;;20.04;43.20;102182.88;5053218;28;3061;-65
2023/01/29 00:36:36;;;;;;;;;;;;;;;20.04;43.27;102177.91;5052543;28;3047;-65
2023/01/29 00:39:09;;;;;;;;;;;;;;;20.03;43.41;102169.88;5052773;28;2938;-65
2023/01/29 00:49:51;;;;;;;;;;;;;;;20.00;43.39;102163.25;5053072;28;2927;-65
2023/01/29 00:52:24;;;;;;;;;;;;;;;20.01;43.29;102170.50;5054520;28;3044;-65
2023/01/29 00:54:57;;;;;;;;;;;;;;;20.02;43.38;102166.25;5058931;28;3020;-65
2023/01/29 00:57:24;;;;;;;;;;;;;;;20.04;43.36;102172.16;5053795;28;2714;-65
2023/01/29 00:59:51;;;;;;;;;;;;;;;20.03;43.37;102167.75;5054943;28;3052;-66
2023/01/29 01:05:05;;;;;;;;;;;;;;;20.05;43.23;102175.78;5053647;28;3092;-65
2023/01/29 01:07:31;;;;;;;;;;;;;;;20.04;43.30;102174.25;5055000;28;3060;-66
2023/01/29 01:12:43;;;;;;;;;;;;;;;20.03;43.35;102173.50;5050366;28;2949;-65
2023/01/29 01:15:10;;;;;;;;;;;;;;;20.03;43.55;102176.38;5049678;28;3170;-65
2023/01/29 01:17:36;;;;;;;;;;;;;;;20.01;43.40;102173.38;5051523;28;3084;-65
2023/01/29 01:20:03;;;;;;;;;;;;;;;20.01;43.43;102176.25;5055970;28;2982;-65
2023/01/29 01:22:30;;;;;;;;;;;;;;;20.02;43.43;102169.13;5057459;28;3271;-65
2023/01/29 01:24:57;;;;;;;;;;;;;;;20.02;43.58;102166.25;5070053;28;3105;-66
2023/01/29 01:27:24;;;;;;;;;;;;;;;20.05;43.40;102175.78;5053969;28;3029;-65
2023/01/29 01:29:50;;;;;;;;;;;;;;;20.05;43.32;102159.28;5060818;28;2976;-65
2023/01/29 01:32:17;;;;;;;;;;;;;;;20.05;43.29;102159.28;5054381;28;2759;-66
2023/01/29 01:34:46;;;;;;;;;;;;;;;20.06;43.27;102157.88;5054487;28;2946;-65
2023/01/29 01:37:13;;;;;;;;;;;;;;;20.07;43.37;102164.41;5053910;28;3013;-66
2023/01/29 01:39:39;;;;;;;;;;;;;;;20.06;43.46;102171.53;5057315;28;3043;-65
2023/01/29 01:42:09;;;;;;;;;;;;;;;20.05;43.47;102173.66;5052367;28;3061;-65
2023/01/29 01:44:52;;;;;;;;;;;;;;;20.05;43.51;102181.53;5056603;28;3124;-66
2023/01/29 01:47:23;;;;;;;;;;;;;;;20.04;43.56;102175.03;5062689;28;1556;-65
2023/01/29 01:49:50;;;;;;;;;;;;;;;20.03;43.63;102185.00;5033895;28;3041;-66
2023/01/29 01:52:16;;;;;;;;;;;;;;;20.04;43.59;102180.00;5051111;28;3037;-65
2023/01/29 01:54:43;;;;;;;;;;;;;;;20.01;43.57;102167.63;5051638;28;3010;-66
2023/01/29 01:57:14;;;;;;;;;;;;;;;20.03;43.60;102167.75;5061632;28;3157;-65
2023/01/29 01:59:47;;;;;;;;;;;;;;;20.02;43.56;102171.22;5050391;28;2983;-65
2023/01/29 02:10:29;;;;;;;;;;;;;;;20.02;43.75;102145.34;5058871;28;2854;-65
2023/01/29 02:12:56;;;;;;;;;;;;;;;20.05;43.52;102142.00;5054590;28;3091;-64
2023/01/29 02:15:22;;;;;;;;;;;;;;;20.05;43.50;102150.66;5054868;28;2661;-65
2023/01/29 02:17:49;;;;;;;;;;;;;;;20.03;43.51;102138.25;5054378;28;3022;-65
2023/01/29 02:20:23;;;;;;;;;;;;;;;20.01;43.73;102135.22;5050495;28;3150;-65
2023/01/29 02:23:07;;;;;;;;;;;;;;;19.99;43.72;102132.97;5052719;28;2998;-65
2023/01/29 02:25:41;;;;;;;;;;;;;;;19.96;43.82;102134.22;5053821;28;2884;-65
2023/01/29 02:28:26;;;;;;;;;;;;;;;19.96;43.79;102128.44;5050559;28;3233;-65
2023/01/29 02:30:56;;;;;;;;;;;;;;;19.95;43.66;102144.22;5048167;28;3021;-65
2023/01/29 02:33:25;;;;;;;;;;;;;;;19.96;43.65;102128.44;5050174;28;3498;-65
2023/01/29 02:35:54;;;;;;;;;;;;;;;19.96;43.42;102145.72;5052377;28;2956;-65
2023/01/29 02:38:35;;;;;;;;;;;;;;;19.97;43.79;102144.31;5049501;28;3276;-64
2023/01/29 02:41:14;;;;;;;;;;;;;;;19.98;43.59;102145.84;5050164;28;3145;-65
2023/01/29 02:43:45;;;;;;;;;;;;;;;19.98;43.69;102131.47;5058577;28;2975;-66
2023/01/29 02:46:17;;;;;;;;;;;;;;;19.98;43.61;102125.72;5066679;28;2972;-65
2023/01/29 02:48:46;;;;;;;;;;;;;;;19.98;43.78;102125.72;5055241;28;1583;-66
2023/01/29 02:51:16;;;;;;;;;;;;;;;19.99;43.66;102127.22;5049637;28;3032;-65
2023/01/29 02:53:49;;;;;;;;;;;;;;;19.97;43.56;102121.31;5055383;28;3124;-65
2023/01/29 02:56:16;;;;;;;;;;;;;;;19.96;43.73;102127.72;5043604;28;2935;-65
2023/01/29 02:58:46;;;;;;;;;;;;;;;19.96;43.58;102116.22;5055276;28;3005;-65
2023/01/29 03:05:14;;;;;;;;;;;;;;;19.94;43.59;102119.69;5038128;28;3014;-66
2023/01/29 03:07:44;;;;;;;;;;;;;;;19.97;43.48;102124.19;5044314;28;3084;-65
2023/01/29 03:10:29;;;;;;;;;;;;;;;19.96;43.70;102128.44;5045833;28;2766;-65
2023/01/29 03:13:06;;;;;;;;;;;;;;;19.94;43.63;102124.69;5031787;28;2784;-65
2023/01/29 03:15:47;;;;;;;;;;;;;;;19.94;43.77;102113.94;5051568;28;2972;-65
2023/01/29 03:18:26;;;;;;;;;;;;;;;19.91;43.75;102120.94;5039599;28;3211;-66
2023/01/29 03:20:57;;;;;;;;;;;;;;;19.91;43.68;102125.94;5037254;28;2793;-65
2023/01/29 03:34:33;;;;;;;;;;;;;;;19.85;43.50;102109.00;5036214;28;3028;-65
2023/01/29 03:37:01;;;;;;;;;;;;;;;19.86;43.59;102101.91;5023278;28;3080;-65
2023/01/29 03:39:27;;;;;;;;;;;;;;;19.87;43.51;102100.53;5043911;28;3165;-66
2023/01/29 03:41:59;;;;;;;;;;;;;;;19.91;43.51;102097.94;5043768;28;3712;-66
2023/01/29 03:44:29;;;;;;;;;;;;;;;19.90;43.63;102087.78;5046868;28;2922;-66
2023/01/29 03:47:07;;;;;;;;;;;;;;;19.93;43.49;102083.69;5038844;28;3607;-66
2023/01/29 03:49:43;;;;;;;;;;;;;;;19.94;43.54;102078.69;5054419;28;2881;-65
2023/01/29 03:52:20;;;;;;;;;;;;;;;19.94;43.65;102067.94;5043648;28;2442;-65
2023/01/29 03:55:00;;;;;;;;;;;;;;;19.95;43.67;102069.47;5049125;28;1732;-66
2023/01/29 03:57:34;;;;;;;;;;;;;;;19.97;43.62;102063.06;5054413;28;2634;-65
2023/01/29 04:00:21;;;;;;;;;;;;;;;19.96;43.77;102050.09;5051332;28;3012;-66
2023/01/29 04:03:02;;;;;;;;;;;;;;;19.99;43.67;102049.59;5063050;28;3047;-65
2023/01/29 04:05:32;;;;;;;;;;;;;;;19.99;43.77;102040.22;5039065;28;3215;-66
2023/01/29 04:08:08;;;;;;;;;;;;;;;19.99;43.68;102040.97;5043453;28;1704;-65
2023/01/29 04:10:34;;;;;;;;;;;;;;;19.99;43.73;102029.47;5038551;28;3048;-66
2023/01/29 04:13:07;;;;;;;;;;;;;;;19.98;43.69;102025.09;5041095;28;2937;-65
2023/01/29 04:15:44;;;;;;;;;;;;;;;19.98;43.83;102016.47;5064248;28;3521;-66
2023/01/29 04:18:10;;;;;;;;;;;;;;;19.99;43.89;102017.22;5055088;28;3432;-66
2023/01/29 04:20:54;;;;;;;;;;;;;;;19.97;43.78;102012.06;5074072;28;2989;-65
2023/01/29 04:23:24;;;;;;;;;;;;;;;19.95;43.86;102009.09;5056576;28;2898;-66
2023/01/29 04:25:59;;;;;;;;;;;;;;;19.96;43.75;102007.69;5061671;28;2977;-66
2023/01/29 04:28:27;;;;;;;;;;;;;;;19.95;43.99;102011.97;5054890;28;3065;-65
2023/01/29 04:30:57;;;;;;;;;;;;;;;19.96;43.86;101989.72;5046290;28;2891;-65
2023/01/29 04:33:27;;;;;;;;;;;;;;;19.97;43.83;101988.31;5036905;28;3036;-65
2023/01/29 04:36:09;;;;;;;;;;;;;;;19.96;43.75;101978.94;5053713;28;3054;-65
2023/01/29 04:38:54;;;;;;;;;;;;;;;19.96;43.81;101987.56;5047692;28;3029;-65
2023/01/29 04:41:20;;;;;;;;;;;;;;;19.96;43.81;101993.31;5053804;28;2943;-65
2023/01/29 04:43:57;;;;;;;;;;;;;;;19.97;43.82;101996.94;5052543;28;2989;-65
2023/01/29 04:46:30;;;;;;;;;;;;;;;19.97;44.05;101991.19;5049046;28;3079;-65
2023/01/29 04:48:56;;;;;;;;;;;;;;;19.95;43.92;101994.72;5049708;28;2950;-65
2023/01/29 04:51:42;;;;;;;;;;;;;;;19.95;43.93;102000.47;5049725;28;3032;-65
2023/01/29 04:54:21;;;;;;;;;;;;;;;19.95;44.01;101994.72;5050027;28;3295;-65
2023/01/29 04:56:50;;;;;;;;;;;;;;;19.95;43.93;101988.97;5050034;28;3031;-65
2023/01/29 04:59:19;;;;;;;;;;;;;;;19.97;43.88;101991.94;5049122;28;2951;-65
2023/01/29 05:01:46;;;;;;;;;;;;;;;19.97;43.88;101996.94;5051441;28;3094;-65
2023/01/29 05:04:13;;;;;;;;;;;;;;;19.98;44.02;102004.97;5051671;28;2918;-65
2023/01/29 05:06:39;;;;;;;;;;;;;;;19.99;43.94;102005.72;5051963;28;1929;-65
2023/01/29 05:09:05;;;;;;;;;;;;;;;20.01;43.98;102002.97;5058033;28;3061;-65
2023/01/29 05:11:32;;;;;;;;;;;;;;;20.02;43.90;101998.72;5059450;28;2957;-65
2023/01/29 05:13:59;;;;;;;;;;;;;;;20.03;43.86;102000.22;5050814;28;2808;-65
2023/01/29 05:16:26;;;;;;;;;;;;;;;20.05;43.73;102003.25;5055625;28;1912;-65
2023/01/29 05:18:53;;;;;;;;;;;;;;;20.04;43.78;101996.75;5056228;28;3349;-66
2023/01/29 05:21:19;;;;;;;;;;;;;;;20.04;43.88;101995.97;5051392;28;3018;-65
2023/01/29 05:23:56;;;;;;;;;;;;;;;20.04;43.94;102002.50;5053168;28;3189;-65
2023/01/29 05:29:07;;;;;;;;;;;;;;;20.02;43.97;101996.63;5048244;28;3115;-65
2023/01/29 05:31:34;;;;;;;;;;;;;;;19.99;44.05;101994.97;5048440;28;2983;-65
2023/01/29 05:34:00;;;;;;;;;;;;;;;20.00;44.17;101996.47;5053817;28;3048;-65
2023/01/29 05:36:26;;;;;;;;;;;;;;;19.99;44.07;101999.97;5054099;28;1940;-65
2023/01/29 05:38:53;;;;;;;;;;;;;;;19.99;44.00;102003.59;5058249;28;3045;-66
2023/01/29 05:41:20;;;;;;;;;;;;;;;20.01;44.03;102009.47;5053747;28;2856;-65
2023/01/29 05:43:46;;;;;;;;;;;;;;;20.00;44.03;102004.34;5052850;28;2657;-65
2023/01/29 05:46:12;;;;;;;;;;;;;;;20.00;43.89;102007.97;5056499;28;2906;-65
2023/01/29 05:48:39;;;;;;;;;;;;;;;20.01;44.04;102005.84;5057380;28;1773;-65
2023/01/29 05:51:05;;;;;;;;;;;;;;;20.01;44.08;102014.47;5050216;28;3039;-65
2023/01/29 05:53:31;;;;;;;;;;;;;;;20.02;44.03;102011.00;5054048;28;2926;-65
2023/01/29 05:56:01;;;;;;;;;;;;;;;20.00;43.98;102019.47;5053670;28;2831;-66
2023/01/29 05:58:28;;;;;;;;;;;;;;;19.99;44.10;102017.97;5053908;28;3036;-65
2023/01/29 06:00:55;;;;;;;;;;;;;;;19.99;44.19;102023.72;5055776;28;3120;-65
2023/01/29 06:03:21;;;;;;;;;;;;;;;20.00;44.41;102028.09;5055512;28;3053;-65
2023/01/29 06:05:47;;;;;;;;;;;;;;;19.98;44.16;102027.97;5056049;28;2209;-65
2023/01/29 06:08:13;;;;;;;;;;;;;;;19.99;44.29;102032.34;5055255;28;3054;-65
2023/01/29 06:10:40;;;;;;;;;;;;;;;19.99;44.26;102026.59;5053463;28;2624;-65
2023/01/29 06:13:06;;;;;;;;;;;;;;;20.00;44.10;102030.97;5053749;28;2942;-65
2023/01/29 06:15:33;;;;;;;;;;;;;;;20.02;44.02;102033.22;5052371;28;3033;-65
2023/01/29 06:17:59;;;;;;;;;;;;;;;20.01;44.04;102035.34;5052911;28;3115;-65
2023/01/29 06:20:25;;;;;;;;;;;;;;;20.02;44.08;102036.88;5047783;28;2827;-66
2023/01/29 06:22:52;;;;;;;;;;;;;;;20.04;43.98;102036.22;5050364;28;3369;-65
2023/01/29 06:25:18;;;;;;;;;;;;;;;20.04;44.28;102033.34;5057171;28;1714;-65
2023/01/29 06:27:44;;;;;;;;;;;;;;;20.05;43.98;102027.00;5051506;28;3045;-66
2023/01/29 06:30:11;;;;;;;;;;;;;;;20.05;43.96;102021.25;5047311;28;2825;-65
2023/01/29 06:32:37;;;;;;;;;;;;;;;20.05;44.14;102020.50;5051699;28;3030;-65
2023/01/29 06:35:04;;;;;;;;;;;;;;;20.03;44.22;102023.97;5053693;28;3069;-65
2023/01/29 06:37:30;;;;;;;;;;;;;;;20.04;44.25;102031.25;5052161;28;2943;-65
2023/01/29 06:39:56;;;;;;;;;;;;;;;20.02;44.36;102028.25;5049569;28;3476;-66
2023/01/29 06:42:26;;;;;;;;;;;;;;;20.01;44.28;102020.97;5051002;28;2208;-65
2023/01/29 06:44:53;;;;;;;;;;;;;;;20.00;44.16;102022.34;5052865;28;1739;-65
2023/01/29 06:47:20;;;;;;;;;;;;;;;20.02;44.13;102033.22;5050423;28;3504;-65
2023/01/29 06:49:46;;;;;;;;;;;;;;;20.03;44.09;102037.63;5050015;28;3048;-66
2023/01/29 06:52:12;;;;;;;;;;;;;;;20.02;44.19;102034.00;5052043;28;1910;-65
2023/01/29 06:54:39;;;;;;;;;;;;;;;20.03;44.18;102040.50;5055734;28;3018;-65
2023/01/29 06:57:05;;;;;;;;;;;;;;;20.03;44.15;102044.09;5054957;28;2556;-66
2023/01/29 06:59:31;;;;;;;;;;;;;;;20.04;44.24;102037.00;5053276;28;2918;-65
2023/01/29 07:01:58;;;;;;;;;;;;;;;20.02;44.20;102028.25;5053147;28;3032;-65
2023/01/29 07:04:24;;;;;;;;;;;;;;;20.03;44.38;102034.75;5051537;28;3083;-66
2023/01/29 07:06:51;;;;;;;;;;;;;;;20.04;44.14;102031.25;5056011;28;3064;-65
2023/01/29 07:09:17;;;;;;;;;;;;;;;20.04;44.24;102034.13;5056502;28;2650;-65
2023/01/29 07:11:43;;;;;;;;;;;;;;;20.03;44.19;102018.22;5055406;28;2896;-65
2023/01/29 07:14:10;;;;;;;;;;;;;;;20.02;44.11;102036.88;5053612;28;2919;-65
2023/01/29 07:16:36;;;;;;;;;;;;;;;20.05;44.10;102032.00;5053263;28;2832;-66
2023/01/29 07:19:03;;;;;;;;;;;;;;;20.06;44.09;102011.22;5061227;28;3134;-67
2023/01/29 07:21:29;;;;;;;;;;;;;;;20.06;44.38;102005.47;5054662;28;3044;-66
2023/01/29 07:23:55;;;;;;;;;;;;;;;20.06;44.26;102019.88;5058556;28;3079;-66
2023/01/29 07:26:22;;;;;;;;;;;;;;;20.08;44.06;102017.13;5060574;28;3029;-66
2023/01/29 07:28:48;;;;;;;;;;;;;;;20.08;44.10;102025.75;5058460;28;2753;-66
2023/01/29 07:31:14;;;;;;;;;;;;;;;20.08;44.22;102048.00;5058475;28;3024;-66
2023/01/29 07:33:44;;;;;;;;;;;;;;;20.07;44.18;102037.88;5057306;28;2957;-66
2023/01/29 07:36:10;;;;;;;;;;;;;;;20.06;44.34;102040.00;5058440;28;2978;-66
2023/01/29 07:38:37;;;;;;;;;;;;;;;20.05;44.30;102029.88;5059396;28;2930;-66
2023/01/29 07:41:03;;;;;;;;;;;;;;;20.04;44.41;102037.00;5058553;28;3006;-66
2023/01/29 07:43:29;;;;;;;;;;;;;;;20.04;44.40;102034.13;5059102;28;2934;-66
2023/01/29 07:45:59;;;;;;;;;;;;;;;20.05;44.24;102026.25;5057610;28;3067;-65
2023/01/29 07:48:26;;;;;;;;;;;;;;;20.05;44.28;102023.38;5059011;28;3078;-65
2023/01/29 07:50:55;;;;;;;;;;;;;;;20.05;44.22;102009.75;5058252;28;2782;-65
2023/01/29 07:53:21;;;;;;;;;;;;;;;20.04;44.32;101996.75;5056714;28;2854;-65
2023/01/29 07:55:48;;;;;;;;;;;;;;;20.05;44.22;101992.50;5055518;28;3116;-66
2023/01/29 07:58:14;;;;;;;;;;;;;;;20.06;44.21;101988.22;5059177;28;3040;-65
2023/01/29 08:00:40;;;;;;;;;;;;;;;20.05;44.16;101995.38;5054768;28;2770;-66
2023/01/29 08:03:08;;;;;;;;;;;;;;;20.05;44.33;102004.00;5058309;28;3386;-66
2023/01/29 08:05:35;;;;;;;;;;;;;;;20.04;44.30;101996.75;5054546;28;3514;-66
2023/01/29 08:08:01;;;;;;;;;;;;;;;20.04;44.35;102001.72;5056568;28;3052;-66
2023/01/29 08:10:35;;;;;;;;;;;;;;;20.02;44.49;101993.75;5060262;28;1761;-65
2023/01/29 08:13:02;;;;;;;;;;;;;;;20.03;44.42;101988.72;5057988;28;2710;-65
2023/01/29 08:15:28;;;;;;;;;;;;;;;20.02;44.31;101985.09;5060494;28;2899;-66
2023/01/29 08:17:54;;;;;;;;;;;;;;;20.05;44.21;101997.50;5058984;28;3343;-66
2023/01/29 08:20:23;;;;;;;;;;;;;;;20.05;44.30;101992.50;5058832;28;2458;-65
2023/01/29 08:22:52;;;;;;;;;;;;;;;20.05;44.28;101986.00;5060690;28;1784;-65
2023/01/29 08:25:19;;;;;;;;;;;;;;;20.05;44.36;101980.25;5055721;28;2961;-66
2023/01/29 08:27:45;;;;;;;;;;;;;;;20.06;44.35;101979.59;5056001;28;2925;-66
2023/01/29 08:30:11;;;;;;;;;;;;;;;20.07;44.59;101975.38;5058691;28;2695;-66
2023/01/29 08:32:38;;;;;;;;;;;;;;;20.07;44.64;101977.50;5059084;28;1911;-66
2023/01/29 08:35:04;;;;;;;;;;;;;;;20.09;44.54;101969.00;5056967;28;2793;-66
2023/01/29 08:37:31;;;;;;;;;;;;;;;20.09;44.66;101974.75;5053883;28;3079;-65
2023/01/29 08:39:57;;;;;;;;;;;;;;;20.11;44.84;101979.88;5057341;28;3001;-65
2023/01/29 08:42:23;;;;;;;;;;;;;;;20.07;44.83;101986.88;5055589;28;2942;-69
2023/01/29 08:44:50;;;;;;;;;;;;;;;20.01;45.08;101992.22;5056571;28;3020;-64
2023/01/29 08:47:16;;;;;;;;;;;;;;;20.00;44.90;101989.97;5055399;28;3009;-62
2023/01/29 08:49:42;;;;;;;;;;;;;;;20.16;44.52;101975.88;5056103;28;3069;-67
2023/01/29 08:52:09;;;;;;;;;;;;;;;20.15;44.76;101983.03;5055428;28;2932;-66
2023/01/29 08:54:35;;;;;;;;;;;;;;;20.13;44.69;101974.25;5053910;28;3037;-64
2023/01/29 08:57:02;;;;;;;;;;;;;;;19.92;43.23;101983.69;5054321;28;3041;-64
2023/01/29 08:59:28;;;;;;;;;;;;;;;19.73;44.11;101979.59;5051104;28;3008;-64
2023/01/29 09:01:54;;;;;;;;;;;;;;;17.34;40.58;101972.63;5051258;28;3164;-71
2023/01/29 09:04:21;;;;;;;;;;;;;;;15.72;41.37;101978.31;5052146;28;3111;-69
2023/01/29 09:06:47;;;;;;;;;;;;;;;14.70;41.25;101982.53;5054888;28;2898;-71
2023/01/29 09:09:13;;;;;;;;;;;;;;;14.14;41.54;101979.03;5057136;28;2915;-70
2023/01/29 09:11:40;;;;;;;;;;;;;;;14.65;40.68;101975.72;5052384;28;2951;-70
2023/01/29 09:14:06;;;;;;;;;;;;;;;14.56;40.43;101967.81;5055260;28;2879;-67
2023/01/29 09:16:32;;;;;;;;;;;;;;;15.53;39.35;101967.41;5055939;28;2951;-68
2023/01/29 09:18:59;;;;;;;;;;;;;;;15.37;38.89;101973.31;5049448;28;3454;-66
2023/01/29 09:21:25;;;;;;;;;;;;;;;16.29;38.57;101977.25;5054553;28;2650;-64
2023/01/29 09:23:51;;;;;;;;;;;;;;;17.29;37.08;101964.31;5054212;28;3010;-66
2023/01/29 09:26:18;;;;;;;;;;;;;;;17.56;37.34;101967.81;5047435;28;3272;-67
2023/01/29 09:28:44;;;;;;;;;;;;;;;18.05;37.31;101967.88;5053881;28;3305;-64
2023/01/29 09:31:10;;;;;;;;;;;;;;;18.35;37.35;101965.72;5053267;28;2954;-64
2023/01/29 09:33:37;;;;;;;;;;;;;;;18.54;37.86;101964.91;5053652;28;3471;-65
2023/01/29 09:36:03;;;;;;;;;;;;;;;18.69;38.13;101953.09;5050946;28;3072;-65
2023/01/29 09:38:30;;;;;;;;;;;;;;;18.80;38.40;101955.31;5048083;28;2943;-65
2023/01/29 09:41:25;;;;;;;;;;;;;;;18.86;38.41;101948.53;5055452;28;2810;-66
2023/01/29 09:43:53;;;;;;;;;;;;;;;19.07;38.69;101942.81;5033253;28;2952;-64
2023/01/29 09:46:29;;;;;;;;;;;;;;;19.13;38.84;101937.50;5055467;28;3099;-63
2023/01/29 09:49:22;;;;;;;;;;;;;;;19.13;39.81;101939.63;5051017;28;3085;-64
2023/01/29 09:51:49;;;;;;;;;;;;;;;19.15;40.25;101934.75;5047487;28;3011;-65
2023/01/29 09:54:21;;;;;;;;;;;;;;;19.17;40.27;101926.28;5050910;28;3136;-64
2023/01/29 09:56:47;;;;;;;;;;;;;;;19.23;40.23;101923.06;5053872;28;2957;-64
2023/01/29 09:59:14;;;;;;;;;;;;;;;19.25;40.69;101921.09;5050479;28;3060;-63
2023/01/29 10:01:50;;;;;;;;;;;;;;;19.30;40.61;101909.88;5051252;28;3191;-63
2023/01/29 10:04:35;;;;;;;;;;;;;;;19.34;40.78;101918.78;5048864;28;3224;-64
2023/01/29 10:07:17;;;;;;;;;;;;;;;19.35;41.04;101911.66;5049692;28;3602;-64
2023/01/29 10:10:06;;;;;;;;;;;;;;;19.37;41.09;101909.66;5052213;28;3001;-64
2023/01/29 10:12:36;;;;;;;;;;;;;;;19.41;41.33;101904.19;5052419;28;3122;-64
2023/01/29 10:15:05;;;;;;;;;;;;;;;19.40;41.36;101913.41;5053863;28;2659;-64
2023/01/29 10:17:36;;;;;;;;;;;;;;;19.44;41.38;101902.94;5055194;28;2974;-63
2023/01/29 10:20:09;;;;;;;;;;;;;;;19.45;41.49;101895.09;5054484;28;3175;-63
2023/01/29 10:22:50;;;;;;;;;;;;;;;19.48;41.55;101893.13;5050794;28;3033;-65
2023/01/29 10:25:18;;;;;;;;;;;;;;;19.50;41.63;101899.75;5051636;28;2811;-65
2023/01/29 10:27:50;;;;;;;;;;;;;;;19.53;41.75;101904.25;5046610;28;3065;-64
2023/01/29 10:30:26;;;;;;;;;;;;;;;19.53;41.80;101915.75;5052427;28;3087;-65
2023/01/29 10:32:53;;;;;;;;;;;;;;;19.57;41.93;101915.28;5049904;28;2934;-65
2023/01/29 10:35:21;;;;;;;;;;;;;;;19.58;42.06;101911.03;5052796;28;3005;-65
2023/01/29 10:37:47;;;;;;;;;;;;;;;19.59;41.89;101904.66;5055255;28;3118;-64
2023/01/29 10:40:21;;;;;;;;;;;;;;;19.61;42.08;101904.06;5048335;28;3053;-64
2023/01/29 10:42:56;;;;;;;;;;;;;;;19.61;42.14;101904.81;5048913;28;3070;-65
2023/01/29 10:45:32;;;;;;;;;;;;;;;19.62;42.17;101894.78;5053269;28;3085;-65
2023/01/29 10:48:08;;;;;;;;;;;;;;;19.63;42.40;101896.31;5052909;28;3037;-65
2023/01/29 10:50:46;;;;;;;;;;;;;;;19.66;42.36;101883.56;5056657;28;3054;-65
2023/01/29 10:53:15;;;;;;;;;;;;;;;19.69;42.41;101864.38;5054499;28;1915;-65
2023/01/29 10:55:42;;;;;;;;;;;;;;;19.70;42.28;101871.63;5054908;28;2990;-65
2023/01/29 10:58:18;;;;;;;;;;;;;;;19.70;42.43;101856.50;5054724;28;1921;-65
2023/01/29 11:00:44;;;;;;;;;;;;;;;19.75;42.46;101859.03;5054342;28;1806;-66
2023/01/29 11:03:15;;;;;;;;;;;;;;;19.77;42.52;101861.25;5053673;28;3032;-65
2023/01/29 11:06:11;;;;;;;;;;;;;;;19.80;42.55;101851.41;5055834;28;3143;-65
2023/01/29 11:08:42;;;;;;;;;;;;;;;19.87;42.65;101844.69;5054523;28;3042;-66
2023/01/29 11:11:12;;;;;;;;;;;;;;;19.89;42.69;101841.94;5049723;28;2897;-65
2023/01/29 11:13:40;;;;;;;;;;;;;;;19.82;42.72;101842.94;5051084;28;3146;-65
2023/01/29 11:16:07;;;;;;;;;;;;;;;19.83;42.75;101832.91;5063343;28;3051;-63
2023/01/29 11:18:47;;;;;;;;;;;;;;;19.86;42.78;101837.44;5049709;28;3411;-65
2023/01/29 11:21:13;;;;;;;;;;;;;;;19.91;42.95;101824.81;5055739;28;3292;-66
2023/01/29 11:23:39;;;;;;;;;;;;;;;19.52;41.18;101822.31;5053372;28;3390;-69
2023/01/29 11:26:08;;;;;;;;;;;;;;;19.37;42.40;101826.38;5048561;28;3036;-67
2023/01/29 11:28:52;;;;;;;;;;;;;;;18.90;40.78;101823.25;5053000;28;2724;-65
2023/01/29 11:31:21;;;;;;;;;;;;;;;19.27;42.43;101819.22;5046158;28;2942;-65
2023/01/29 11:33:47;;;;;;;;;;;;;;;19.50;42.11;101815.69;5050839;28;3452;-65
2023/01/29 11:36:40;;;;;;;;;;;;;;;19.61;41.82;101807.09;5054640;28;2963;-65
2023/01/29 11:39:06;;;;;;;;;;;;;;;19.71;41.74;101803.41;5053370;28;2923;-65
2023/01/29 11:41:41;;;;;;;;;;;;;;;19.76;41.84;101793.66;5054483;28;2908;-65
2023/01/29 11:44:16;;;;;;;;;;;;;;;19.79;42.48;101792.41;5054997;28;3008;-65
2023/01/29 11:46:42;;;;;;;;;;;;;;;19.82;42.04;101796.94;5052985;28;2614;-65
2023/01/29 11:49:11;;;;;;;;;;;;;;;19.82;42.28;101780.44;5050331;28;2675;-65
2023/01/29 11:51:49;;;;;;;;;;;;;;;19.84;42.30;101785.56;5049993;28;3014;-65
2023/01/29 11:54:15;;;;;;;;;;;;;;;19.84;42.25;101776.94;5051505;28;2949;-65
2023/01/29 11:56:42;;;;;;;;;;;;;;;19.85;42.42;101772.69;5052841;28;2794;-64
2023/01/29 11:59:25;;;;;;;;;;;;;;;19.85;42.43;101775.56;5049615;28;3326;-66
2023/01/29 12:01:51;;;;;;;;;;;;;;;19.86;42.63;101771.34;5053025;28;3000;-65
2023/01/29 12:04:19;;;;;;;;;;;;;;;19.87;42.93;101769.94;5058210;28;2580;-65
2023/01/29 12:06:47;;;;;;;;;;;;;;;19.87;42.83;101764.19;5050300;28;3473;-64
2023/01/29 12:09:14;;;;;;;;;;;;;;;19.87;42.70;101770.69;5054413;28;3240;-64
2023/01/29 12:11:42;;;;;;;;;;;;;;;19.88;42.74;101772.22;5069794;28;3140;-65
2023/01/29 12:14:21;;;;;;;;;;;;;;;19.90;42.97;101771.56;5056195;28;2859;-65
2023/01/29 12:16:52;;;;;;;;;;;;;;;19.90;42.99;101765.81;5053938;28;2711;-64
2023/01/29 12:19:39;;;;;;;;;;;;;;;19.91;42.98;101763.72;5055406;28;2682;-65
2023/01/29 12:22:09;;;;;;;;;;;;;;;19.92;43.17;101760.19;5050341;28;2745;-65
2023/01/29 12:24:37;;;;;;;;;;;;;;;19.91;43.41;101758.72;5058424;28;2584;-65
2023/01/29 12:27:14;;;;;;;;;;;;;;;19.91;43.53;101769.47;5055519;28;3002;-69
2023/01/29 12:29:59;;;;;;;;;;;;;;;19.32;41.98;101744.19;5051152;28;3424;-63
2023/01/29 12:32:45;;;;;;;;;;;;;;;19.50;42.45;101744.63;5055978;28;2801;-62
2023/01/29 12:35:14;;;;;;;;;;;;;;;19.64;42.45;101739.78;5052714;28;2880;-62
2023/01/29 12:37:40;;;;;;;;;;;;;;;19.72;42.09;101747.44;5053780;28;2949;-63
2023/01/29 12:40:13;;;;;;;;;;;;;;;19.77;42.00;101743.44;5052936;28;2935;-63
2023/01/29 12:42:41;;;;;;;;;;;;;;;19.84;41.87;101728.09;5051419;28;3136;-64
2023/01/29 12:45:09;;;;;;;;;;;;;;;19.87;42.23;101721.09;5054469;28;2837;-68
2023/01/29 12:47:43;;;;;;;;;;;;;;;19.95;42.52;101707.22;5045314;28;4595;-70
2023/01/29 12:50:19;;;;;;;;;;;;;;;19.95;42.73;101701.47;5052843;28;3261;-71
2023/01/29 12:52:47;;;;;;;;;;;;;;;19.93;42.72;101698.47;5052821;28;2834;-69
2023/01/29 12:55:20;;;;;;;;;;;;;;;19.96;42.84;101705.84;5055811;28;3051;-70
2023/01/29 12:57:47;;;;;;;;;;;;;;;19.96;42.87;101702.22;5045210;28;3495;-71
2023/01/29 13:00:14;;;;;;;;;;;;;;;19.90;43.12;101710.47;5052363;28;3467;-71
2023/01/29 13:02:48;;;;;;;;;;;;;;;19.62;41.37;101702.28;5059093;28;3170;-72
2023/01/29 13:05:47;;;;;;;;;;;;;;;20.01;41.36;101710.44;5057742;28;2717;-70
2023/01/29 13:08:18;;;;;;;;;;;;;;;20.28;41.44;101698.44;5028399;28;3007;-77
2023/01/29 13:10:45;;;;;;;;;;;;;;;20.42;41.80;101706.41;5052245;28;3252;-71
2023/01/29 13:13:25;;;;;;;;;;;;;;;20.53;41.93;101705.63;5051462;28;2990;-70
2023/01/29 13:15:51;;;;;;;;;;;;;;;20.57;42.24;101710.91;5057339;28;3369;-70
2023/01/29 13:18:39;;;;;;;;;;;;;;;20.62;43.02;101706.91;5052632;28;3712;-80
2023/01/29 13:21:06;;;;;;;;;;;;;;;20.74;43.34;101706.84;5047212;28;3120;-69
2023/01/29 13:23:39;;;;;;;;;;;;;;;20.81;43.38;101705.84;5054395;28;4566;-68
2023/01/29 13:26:05;;;;;;;;;;;;;;;20.80;43.87;101701.44;5046369;28;4911;-69
2023/01/29 13:28:32;;;;;;;;;;;;;;;20.86;43.85;101691.03;5052445;28;3001;-70
2023/01/29 13:31:18;;;;;;;;;;;;;;;20.82;44.22;101685.06;5044322;28;2922;-74
2023/01/29 13:33:50;;;;;;;;;;;;;;;20.88;44.74;101687.53;5053536;28;4267;-81
2023/01/29 13:36:19;;;;;;;;;;;;;;;20.96;44.80;101693.00;5055462;28;3034;-76
2023/01/29 13:38:46;;;;;;;;;;;;;;;20.88;44.70;101693.28;5051655;28;3386;-74
2023/01/29 13:41:12;;;;;;;;;;;;;;;20.80;45.07;101687.03;5054215;28;2936;-71
2023/01/29 13:43:40;;;;;;;;;;;;;;;20.67;45.83;101686.34;5052771;28;3199;-77